sensor_id;sensor_type;location;lat;lon;timestamp;P1;durP1;ratioP1;P2;durP2;ratioP2
78346;SDS011;67803;41.330;69.282;2023-05-07T00:00:43;25.25;;;12.75;;
78346;SDS011;67803;41.330;69.282;2023-05-07T00:03:14;26.48;;;12.57;;
78346;SDS011;67803;41.330;69.282;2023-05-07T00:05:44;28.23;;;12.85;;
78346;SDS011;67803;41.330;69.282;2023-05-07T00:08:15;28.90;;;12.05;;
78346;SDS011;67803;41.330;69.282;2023-05-07T00:10:45;34.42;;;15.00;;
78346;SDS011;67803;41.330;69.282;2023-05-07T00:13:16;33.60;;;13.98;;
78346;SDS011;67803;41.330;69.282;2023-05-07T00:15:46;33.38;;;14.52;;
78346;SDS011;67803;41.330;69.282;2023-05-07T00:18:17;24.55;;;12.93;;
78346;SDS011;67803;41.330;69.282;2023-05-07T00:20:51;22.75;;;13.48;;
78346;SDS011;67803;41.330;69.282;2023-05-07T00:23:21;25.27;;;13.10;;
78346;SDS011;67803;41.330;69.282;2023-05-07T00:25:52;23.10;;;12.95;;
78346;SDS011;67803;41.330;69.282;2023-05-07T00:28:22;26.27;;;12.95;;
78346;SDS011;67803;41.330;69.282;2023-05-07T00:30:53;27.85;;;12.90;;
78346;SDS011;67803;41.330;69.282;2023-05-07T00:33:23;21.73;;;12.00;;
78346;SDS011;67803;41.330;69.282;2023-05-07T00:35:54;23.88;;;12.02;;
78346;SDS011;67803;41.330;69.282;2023-05-07T00:38:24;22.67;;;11.77;;
78346;SDS011;67803;41.330;69.282;2023-05-07T00:40:55;25.60;;;12.45;;
78346;SDS011;67803;41.330;69.282;2023-05-07T00:43:25;25.48;;;12.05;;
78346;SDS011;67803;41.330;69.282;2023-05-07T00:45:57;25.80;;;11.93;;
78346;SDS011;67803;41.330;69.282;2023-05-07T00:48:28;25.98;;;12.13;;
78346;SDS011;67803;41.330;69.282;2023-05-07T00:50:58;28.95;;;12.50;;
78346;SDS011;67803;41.330;69.282;2023-05-07T00:53:29;25.65;;;12.85;;
78346;SDS011;67803;41.330;69.282;2023-05-07T00:56:00;25.80;;;13.82;;
78346;SDS011;67803;41.330;69.282;2023-05-07T00:58:31;28.42;;;13.05;;
78346;SDS011;67803;41.330;69.282;2023-05-07T01:01:01;26.95;;;13.30;;
78346;SDS011;67803;41.330;69.282;2023-05-07T01:03:32;24.27;;;13.45;;
78346;SDS011;67803;41.330;69.282;2023-05-07T01:06:02;27.45;;;13.80;;
78346;SDS011;67803;41.330;69.282;2023-05-07T01:08:33;29.90;;;14.90;;
78346;SDS011;67803;41.330;69.282;2023-05-07T01:11:05;33.22;;;14.68;;
78346;SDS011;67803;41.330;69.282;2023-05-07T01:13:36;29.40;;;14.27;;
78346;SDS011;67803;41.330;69.282;2023-05-07T01:16:08;30.35;;;13.60;;
78346;SDS011;67803;41.330;69.282;2023-05-07T01:18:39;24.23;;;14.80;;
78346;SDS011;67803;41.330;69.282;2023-05-07T01:21:10;39.05;;;14.90;;
78346;SDS011;67803;41.330;69.282;2023-05-07T01:23:41;28.67;;;14.48;;
78346;SDS011;67803;41.330;69.282;2023-05-07T01:26:11;29.02;;;14.80;;
78346;SDS011;67803;41.330;69.282;2023-05-07T01:28:42;33.25;;;16.30;;
78346;SDS011;67803;41.330;69.282;2023-05-07T01:31:12;27.15;;;16.25;;
78346;SDS011;67803;41.330;69.282;2023-05-07T01:33:44;31.00;;;16.98;;
78346;SDS011;67803;41.330;69.282;2023-05-07T01:36:15;26.88;;;17.15;;
78346;SDS011;67803;41.330;69.282;2023-05-07T01:38:47;30.52;;;16.25;;
78346;SDS011;67803;41.330;69.282;2023-05-07T01:41:18;33.55;;;17.13;;
78346;SDS011;67803;41.330;69.282;2023-05-07T01:43:49;31.52;;;16.85;;
78346;SDS011;67803;41.330;69.282;2023-05-07T01:46:20;32.33;;;16.30;;
78346;SDS011;67803;41.330;69.282;2023-05-07T01:48:51;33.03;;;16.85;;
78346;SDS011;67803;41.330;69.282;2023-05-07T01:51:22;27.55;;;15.80;;
78346;SDS011;67803;41.330;69.282;2023-05-07T01:53:52;31.15;;;15.75;;
78346;SDS011;67803;41.330;69.282;2023-05-07T01:56:23;32.10;;;16.40;;
78346;SDS011;67803;41.330;69.282;2023-05-07T01:58:54;27.70;;;16.13;;
78346;SDS011;67803;41.330;69.282;2023-05-07T02:01:24;34.10;;;16.20;;
78346;SDS011;67803;41.330;69.282;2023-05-07T02:03:55;32.05;;;16.02;;
78346;SDS011;67803;41.330;69.282;2023-05-07T02:06:27;32.78;;;16.55;;
78346;SDS011;67803;41.330;69.282;2023-05-07T02:08:57;29.50;;;12.93;;
78346;SDS011;67803;41.330;69.282;2023-05-07T02:11:27;33.38;;;14.40;;
78346;SDS011;67803;41.330;69.282;2023-05-07T02:13:58;22.70;;;12.95;;
78346;SDS011;67803;41.330;69.282;2023-05-07T02:16:28;23.05;;;11.43;;
78346;SDS011;67803;41.330;69.282;2023-05-07T02:18:59;25.42;;;12.02;;
78346;SDS011;67803;41.330;69.282;2023-05-07T02:21:29;30.40;;;10.88;;
78346;SDS011;67803;41.330;69.282;2023-05-07T02:24:00;21.00;;;10.38;;
78346;SDS011;67803;41.330;69.282;2023-05-07T02:26:30;22.58;;;10.27;;
78346;SDS011;67803;41.330;69.282;2023-05-07T02:29:01;18.00;;;8.70;;
78346;SDS011;67803;41.330;69.282;2023-05-07T02:31:31;21.70;;;8.30;;
78346;SDS011;67803;41.330;69.282;2023-05-07T02:34:03;16.05;;;7.63;;
78346;SDS011;67803;41.330;69.282;2023-05-07T02:36:34;18.05;;;7.60;;
78346;SDS011;67803;41.330;69.282;2023-05-07T02:39:05;12.60;;;7.00;;
78346;SDS011;67803;41.330;69.282;2023-05-07T02:41:35;16.42;;;6.68;;
78346;SDS011;67803;41.330;69.282;2023-05-07T02:44:05;16.20;;;6.28;;
78346;SDS011;67803;41.330;69.282;2023-05-07T02:46:36;20.13;;;7.00;;
78346;SDS011;67803;41.330;69.282;2023-05-07T02:49:07;16.48;;;6.95;;
78346;SDS011;67803;41.330;69.282;2023-05-07T02:51:38;15.68;;;7.40;;
78346;SDS011;67803;41.330;69.282;2023-05-07T02:54:08;20.95;;;8.25;;
78346;SDS011;67803;41.330;69.282;2023-05-07T02:56:38;21.33;;;8.40;;
78346;SDS011;67803;41.330;69.282;2023-05-07T02:59:09;19.77;;;8.35;;
78346;SDS011;67803;41.330;69.282;2023-05-07T03:01:40;19.63;;;8.35;;
78346;SDS011;67803;41.330;69.282;2023-05-07T03:04:13;17.17;;;7.75;;
78346;SDS011;67803;41.330;69.282;2023-05-07T03:06:44;17.35;;;7.50;;
78346;SDS011;67803;41.330;69.282;2023-05-07T03:09:14;17.13;;;7.65;;
78346;SDS011;67803;41.330;69.282;2023-05-07T03:11:45;18.85;;;7.80;;
78346;SDS011;67803;41.330;69.282;2023-05-07T03:14:15;17.77;;;7.40;;
78346;SDS011;67803;41.330;69.282;2023-05-07T03:16:46;17.38;;;6.95;;
78346;SDS011;67803;41.330;69.282;2023-05-07T03:19:16;19.27;;;7.80;;
78346;SDS011;67803;41.330;69.282;2023-05-07T03:21:47;19.27;;;7.28;;
78346;SDS011;67803;41.330;69.282;2023-05-07T03:24:17;12.70;;;6.57;;
78346;SDS011;67803;41.330;69.282;2023-05-07T03:26:48;21.67;;;7.82;;
78346;SDS011;67803;41.330;69.282;2023-05-07T03:29:18;18.23;;;7.32;;
78346;SDS011;67803;41.330;69.282;2023-05-07T03:31:49;14.68;;;7.32;;
78346;SDS011;67803;41.330;69.282;2023-05-07T03:34:20;21.02;;;8.02;;
78346;SDS011;67803;41.330;69.282;2023-05-07T03:36:52;20.27;;;7.63;;
78346;SDS011;67803;41.330;69.282;2023-05-07T03:39:22;20.80;;;7.68;;
78346;SDS011;67803;41.330;69.282;2023-05-07T03:41:53;20.30;;;7.38;;
78346;SDS011;67803;41.330;69.282;2023-05-07T03:44:23;16.15;;;7.28;;
78346;SDS011;67803;41.330;69.282;2023-05-07T03:46:54;17.23;;;6.88;;
78346;SDS011;67803;41.330;69.282;2023-05-07T03:49:25;15.70;;;6.60;;
78346;SDS011;67803;41.330;69.282;2023-05-07T03:51:55;19.08;;;6.18;;
78346;SDS011;67803;41.330;69.282;2023-05-07T03:54:26;15.90;;;5.65;;
78346;SDS011;67803;41.330;69.282;2023-05-07T03:56:57;16.13;;;6.18;;
78346;SDS011;67803;41.330;69.282;2023-05-07T03:59:27;13.25;;;5.80;;
78346;SDS011;67803;41.330;69.282;2023-05-07T04:01:58;12.05;;;6.40;;
78346;SDS011;67803;41.330;69.282;2023-05-07T04:04:28;14.80;;;5.90;;
78346;SDS011;67803;41.330;69.282;2023-05-07T04:07:02;13.90;;;5.10;;
78346;SDS011;67803;41.330;69.282;2023-05-07T04:09:33;12.27;;;5.45;;
78346;SDS011;67803;41.330;69.282;2023-05-07T04:12:03;11.48;;;5.57;;
78346;SDS011;67803;41.330;69.282;2023-05-07T04:14:34;14.60;;;5.47;;
78346;SDS011;67803;41.330;69.282;2023-05-07T04:17:05;19.38;;;6.82;;
78346;SDS011;67803;41.330;69.282;2023-05-07T04:19:37;18.30;;;6.93;;
78346;SDS011;67803;41.330;69.282;2023-05-07T04:22:09;19.73;;;6.45;;
78346;SDS011;67803;41.330;69.282;2023-05-07T04:24:39;10.73;;;5.68;;
78346;SDS011;67803;41.330;69.282;2023-05-07T04:27:10;15.35;;;5.68;;
78346;SDS011;67803;41.330;69.282;2023-05-07T04:29:40;16.25;;;5.88;;
78346;SDS011;67803;41.330;69.282;2023-05-07T04:32:12;11.20;;;5.70;;
78346;SDS011;67803;41.330;69.282;2023-05-07T04:34:43;15.20;;;5.72;;
78346;SDS011;67803;41.330;69.282;2023-05-07T04:37:13;12.63;;;5.63;;
78346;SDS011;67803;41.330;69.282;2023-05-07T04:39:44;18.08;;;5.32;;
78346;SDS011;67803;41.330;69.282;2023-05-07T04:42:15;18.73;;;6.28;;
78346;SDS011;67803;41.330;69.282;2023-05-07T04:44:45;13.00;;;5.53;;
78346;SDS011;67803;41.330;69.282;2023-05-07T04:47:16;17.10;;;6.35;;
78346;SDS011;67803;41.330;69.282;2023-05-07T04:49:46;14.40;;;5.57;;
78346;SDS011;67803;41.330;69.282;2023-05-07T04:52:17;10.75;;;5.72;;
78346;SDS011;67803;41.330;69.282;2023-05-07T04:54:47;11.70;;;6.57;;
78346;SDS011;67803;41.330;69.282;2023-05-07T04:57:18;17.27;;;6.13;;
78346;SDS011;67803;41.330;69.282;2023-05-07T04:59:48;11.57;;;5.38;;
78346;SDS011;67803;41.330;69.282;2023-05-07T05:02:19;13.13;;;5.47;;
78346;SDS011;67803;41.330;69.282;2023-05-07T05:04:49;12.98;;;5.05;;
78346;SDS011;67803;41.330;69.282;2023-05-07T05:07:20;13.05;;;5.60;;
78346;SDS011;67803;41.330;69.282;2023-05-07T05:09:50;12.60;;;4.57;;
78346;SDS011;67803;41.330;69.282;2023-05-07T05:12:21;12.02;;;5.13;;
78346;SDS011;67803;41.330;69.282;2023-05-07T05:14:51;13.25;;;4.70;;
78346;SDS011;67803;41.330;69.282;2023-05-07T05:17:22;13.15;;;5.03;;
78346;SDS011;67803;41.330;69.282;2023-05-07T05:19:52;14.30;;;4.55;;
78346;SDS011;67803;41.330;69.282;2023-05-07T05:22:22;13.63;;;4.65;;
78346;SDS011;67803;41.330;69.282;2023-05-07T05:24:55;40.08;;;5.88;;
78346;SDS011;67803;41.330;69.282;2023-05-07T05:27:25;14.32;;;4.70;;
78346;SDS011;67803;41.330;69.282;2023-05-07T05:29:55;9.32;;;4.00;;
78346;SDS011;67803;41.330;69.282;2023-05-07T05:32:26;10.80;;;4.25;;
78346;SDS011;67803;41.330;69.282;2023-05-07T05:34:56;12.32;;;4.80;;
78346;SDS011;67803;41.330;69.282;2023-05-07T05:37:27;12.57;;;4.30;;
78346;SDS011;67803;41.330;69.282;2023-05-07T05:39:57;17.73;;;4.43;;
78346;SDS011;67803;41.330;69.282;2023-05-07T05:42:28;13.02;;;4.63;;
78346;SDS011;67803;41.330;69.282;2023-05-07T05:44:58;15.50;;;4.72;;
78346;SDS011;67803;41.330;69.282;2023-05-07T05:47:29;13.60;;;4.78;;
78346;SDS011;67803;41.330;69.282;2023-05-07T05:49:59;11.27;;;3.70;;
78346;SDS011;67803;41.330;69.282;2023-05-07T05:52:30;14.77;;;4.80;;
78346;SDS011;67803;41.330;69.282;2023-05-07T05:55:00;21.95;;;4.85;;
78346;SDS011;67803;41.330;69.282;2023-05-07T05:57:31;12.50;;;4.20;;
78346;SDS011;67803;41.330;69.282;2023-05-07T06:00:01;15.65;;;4.60;;
78346;SDS011;67803;41.330;69.282;2023-05-07T06:02:32;14.77;;;4.60;;
78346;SDS011;67803;41.330;69.282;2023-05-07T06:05:03;9.40;;;4.00;;
78346;SDS011;67803;41.330;69.282;2023-05-07T06:07:34;13.80;;;4.55;;
78346;SDS011;67803;41.330;69.282;2023-05-07T06:10:05;12.45;;;5.05;;
78346;SDS011;67803;41.330;69.282;2023-05-07T06:12:35;12.00;;;4.13;;
78346;SDS011;67803;41.330;69.282;2023-05-07T06:15:06;13.00;;;4.40;;
78346;SDS011;67803;41.330;69.282;2023-05-07T06:17:36;11.90;;;4.63;;
78346;SDS011;67803;41.330;69.282;2023-05-07T06:20:07;13.00;;;4.32;;
78346;SDS011;67803;41.330;69.282;2023-05-07T06:22:37;12.88;;;4.75;;
78346;SDS011;67803;41.330;69.282;2023-05-07T06:25:08;11.65;;;5.10;;
78346;SDS011;67803;41.330;69.282;2023-05-07T06:27:38;13.10;;;4.40;;
78346;SDS011;67803;41.330;69.282;2023-05-07T06:30:09;11.73;;;4.60;;
78346;SDS011;67803;41.330;69.282;2023-05-07T06:32:40;11.07;;;3.75;;
78346;SDS011;67803;41.330;69.282;2023-05-07T06:35:11;14.52;;;4.45;;
78346;SDS011;67803;41.330;69.282;2023-05-07T06:37:41;19.85;;;4.13;;
78346;SDS011;67803;41.330;69.282;2023-05-07T06:40:15;11.93;;;4.80;;
78346;SDS011;67803;41.330;69.282;2023-05-07T06:42:45;18.27;;;4.50;;
78346;SDS011;67803;41.330;69.282;2023-05-07T06:45:16;13.70;;;4.70;;
78346;SDS011;67803;41.330;69.282;2023-05-07T06:47:46;12.73;;;4.63;;
78346;SDS011;67803;41.330;69.282;2023-05-07T06:50:17;12.52;;;4.47;;
78346;SDS011;67803;41.330;69.282;2023-05-07T06:52:47;19.73;;;5.32;;
78346;SDS011;67803;41.330;69.282;2023-05-07T06:55:18;16.20;;;4.93;;
78346;SDS011;67803;41.330;69.282;2023-05-07T06:57:49;13.80;;;4.22;;
78346;SDS011;67803;41.330;69.282;2023-05-07T07:00:19;12.60;;;4.00;;
78346;SDS011;67803;41.330;69.282;2023-05-07T07:02:50;11.68;;;3.72;;
78346;SDS011;67803;41.330;69.282;2023-05-07T07:05:20;18.35;;;3.92;;
78346;SDS011;67803;41.330;69.282;2023-05-07T07:07:51;13.50;;;4.00;;
78346;SDS011;67803;41.330;69.282;2023-05-07T07:10:24;11.65;;;3.22;;
78346;SDS011;67803;41.330;69.282;2023-05-07T07:12:54;11.55;;;4.22;;
78346;SDS011;67803;41.330;69.282;2023-05-07T07:15:25;9.35;;;3.30;;
78346;SDS011;67803;41.330;69.282;2023-05-07T07:17:56;10.77;;;3.42;;
78346;SDS011;67803;41.330;69.282;2023-05-07T07:20:26;11.70;;;3.72;;
78346;SDS011;67803;41.330;69.282;2023-05-07T07:22:57;9.07;;;3.33;;
78346;SDS011;67803;41.330;69.282;2023-05-07T07:25:27;10.60;;;3.50;;
78346;SDS011;67803;41.330;69.282;2023-05-07T07:27:57;12.20;;;3.53;;
78346;SDS011;67803;41.330;69.282;2023-05-07T07:30:28;13.52;;;3.90;;
78346;SDS011;67803;41.330;69.282;2023-05-07T07:32:58;12.90;;;3.40;;
78346;SDS011;67803;41.330;69.282;2023-05-07T07:35:33;12.95;;;3.78;;
78346;SDS011;67803;41.330;69.282;2023-05-07T07:38:03;9.40;;;3.58;;
78346;SDS011;67803;41.330;69.282;2023-05-07T07:40:34;13.57;;;3.47;;
78346;SDS011;67803;41.330;69.282;2023-05-07T07:43:05;8.70;;;3.20;;
78346;SDS011;67803;41.330;69.282;2023-05-07T07:45:36;19.23;;;3.47;;
78346;SDS011;67803;41.330;69.282;2023-05-07T07:48:06;11.93;;;3.40;;
78346;SDS011;67803;41.330;69.282;2023-05-07T07:50:37;16.42;;;3.65;;
78346;SDS011;67803;41.330;69.282;2023-05-07T07:53:07;8.27;;;3.33;;
78346;SDS011;67803;41.330;69.282;2023-05-07T07:55:38;8.88;;;3.10;;
78346;SDS011;67803;41.330;69.282;2023-05-07T07:58:09;11.30;;;3.67;;
78346;SDS011;67803;41.330;69.282;2023-05-07T08:00:40;9.98;;;3.17;;
78346;SDS011;67803;41.330;69.282;2023-05-07T08:03:10;7.30;;;3.05;;
78346;SDS011;67803;41.330;69.282;2023-05-07T08:05:41;10.95;;;3.60;;
78346;SDS011;67803;41.330;69.282;2023-05-07T08:08:11;13.05;;;3.00;;
78346;SDS011;67803;41.330;69.282;2023-05-07T08:10:42;169.13;;;14.80;;
78346;SDS011;67803;41.330;69.282;2023-05-07T08:13:12;15.27;;;3.13;;
78346;SDS011;67803;41.330;69.282;2023-05-07T08:15:43;9.23;;;3.00;;
78346;SDS011;67803;41.330;69.282;2023-05-07T08:18:13;8.30;;;3.20;;
78346;SDS011;67803;41.330;69.282;2023-05-07T08:20:44;9.60;;;2.90;;
78346;SDS011;67803;41.330;69.282;2023-05-07T08:23:14;8.32;;;2.80;;
78346;SDS011;67803;41.330;69.282;2023-05-07T08:25:45;11.93;;;2.83;;
78346;SDS011;67803;41.330;69.282;2023-05-07T08:28:15;11.38;;;2.63;;
78346;SDS011;67803;41.330;69.282;2023-05-07T08:30:46;8.13;;;2.60;;
78346;SDS011;67803;41.330;69.282;2023-05-07T08:33:16;8.45;;;2.97;;
78346;SDS011;67803;41.330;69.282;2023-05-07T08:35:47;27.58;;;4.15;;
78346;SDS011;67803;41.330;69.282;2023-05-07T08:38:17;10.90;;;3.00;;
78346;SDS011;67803;41.330;69.282;2023-05-07T08:40:48;10.63;;;3.00;;
78346;SDS011;67803;41.330;69.282;2023-05-07T08:43:18;10.75;;;3.70;;
78346;SDS011;67803;41.330;69.282;2023-05-07T08:45:49;8.73;;;2.55;;
78346;SDS011;67803;41.330;69.282;2023-05-07T08:48:25;11.57;;;3.30;;
78346;SDS011;67803;41.330;69.282;2023-05-07T08:50:55;8.48;;;2.80;;
78346;SDS011;67803;41.330;69.282;2023-05-07T08:53:26;13.70;;;3.40;;
78346;SDS011;67803;41.330;69.282;2023-05-07T08:55:56;9.93;;;3.40;;
78346;SDS011;67803;41.330;69.282;2023-05-07T08:58:27;9.75;;;3.20;;
78346;SDS011;67803;41.330;69.282;2023-05-07T09:00:57;10.18;;;3.00;;
78346;SDS011;67803;41.330;69.282;2023-05-07T09:03:28;13.60;;;3.70;;
78346;SDS011;67803;41.330;69.282;2023-05-07T09:06:00;8.70;;;3.25;;
78346;SDS011;67803;41.330;69.282;2023-05-07T09:08:32;12.82;;;3.10;;
78346;SDS011;67803;41.330;69.282;2023-05-07T09:11:03;10.82;;;3.30;;
78346;SDS011;67803;41.330;69.282;2023-05-07T09:13:33;13.43;;;3.30;;
78346;SDS011;67803;41.330;69.282;2023-05-07T09:16:09;5.63;;;2.60;;
78346;SDS011;67803;41.330;69.282;2023-05-07T09:18:43;12.98;;;3.30;;
78346;SDS011;67803;41.330;69.282;2023-05-07T09:21:15;6.47;;;2.53;;
78346;SDS011;67803;41.330;69.282;2023-05-07T09:23:45;8.68;;;2.88;;
78346;SDS011;67803;41.330;69.282;2023-05-07T09:26:17;13.23;;;2.80;;
78346;SDS011;67803;41.330;69.282;2023-05-07T09:28:48;9.23;;;2.70;;
78346;SDS011;67803;41.330;69.282;2023-05-07T09:31:18;11.02;;;3.28;;
78346;SDS011;67803;41.330;69.282;2023-05-07T09:33:49;7.35;;;2.90;;
78346;SDS011;67803;41.330;69.282;2023-05-07T09:36:19;10.45;;;3.35;;
78346;SDS011;67803;41.330;69.282;2023-05-07T09:38:50;19.50;;;4.45;;
78346;SDS011;67803;41.330;69.282;2023-05-07T09:41:21;21.23;;;5.65;;
78346;SDS011;67803;41.330;69.282;2023-05-07T09:43:55;23.60;;;5.40;;
78346;SDS011;67803;41.330;69.282;2023-05-07T09:46:29;16.30;;;6.10;;
78346;SDS011;67803;41.330;69.282;2023-05-07T09:49:01;20.75;;;6.85;;
78346;SDS011;67803;41.330;69.282;2023-05-07T09:51:34;29.20;;;10.00;;
78346;SDS011;67803;41.330;69.282;2023-05-07T09:54:08;29.58;;;7.88;;
78346;SDS011;67803;41.330;69.282;2023-05-07T09:56:40;25.90;;;5.93;;
78346;SDS011;67803;41.330;69.282;2023-05-07T09:59:14;25.55;;;7.20;;
78346;SDS011;67803;41.330;69.282;2023-05-07T10:01:45;19.92;;;6.30;;
78346;SDS011;67803;41.330;69.282;2023-05-07T10:04:16;25.10;;;6.15;;
78346;SDS011;67803;41.330;69.282;2023-05-07T10:06:47;19.25;;;4.68;;
78346;SDS011;67803;41.330;69.282;2023-05-07T10:09:18;18.77;;;3.60;;
78346;SDS011;67803;41.330;69.282;2023-05-07T10:11:49;15.55;;;3.22;;
78346;SDS011;67803;41.330;69.282;2023-05-07T10:14:20;17.00;;;3.63;;
78346;SDS011;67803;41.330;69.282;2023-05-07T10:16:51;18.83;;;4.00;;
78346;SDS011;67803;41.330;69.282;2023-05-07T10:19:22;18.95;;;3.58;;
78346;SDS011;67803;41.330;69.282;2023-05-07T10:21:54;14.32;;;3.72;;
78346;SDS011;67803;41.330;69.282;2023-05-07T10:24:28;14.32;;;5.43;;
78346;SDS011;67803;41.330;69.282;2023-05-07T10:27:00;13.80;;;3.72;;
78346;SDS011;67803;41.330;69.282;2023-05-07T10:32:39;13.40;;;3.20;;
78346;SDS011;67803;41.330;69.282;2023-05-07T10:35:14;14.30;;;3.28;;
78346;SDS011;67803;41.330;69.282;2023-05-07T10:37:46;13.30;;;3.50;;
78346;SDS011;67803;41.330;69.282;2023-05-07T10:40:17;10.13;;;3.25;;
78346;SDS011;67803;41.330;69.282;2023-05-07T10:43:00;10.00;;;3.83;;
78346;SDS011;67803;41.330;69.282;2023-05-07T10:45:31;12.30;;;3.75;;
78346;SDS011;67803;41.330;69.282;2023-05-07T10:48:06;8.07;;;3.75;;
78346;SDS011;67803;41.330;69.282;2023-05-07T10:50:37;10.10;;;4.13;;
78346;SDS011;67803;41.330;69.282;2023-05-07T10:55:48;16.70;;;3.95;;
78346;SDS011;67803;41.330;69.282;2023-05-07T10:58:23;18.30;;;5.82;;
78346;SDS011;67803;41.330;69.282;2023-05-07T11:00:56;9.18;;;3.40;;
78346;SDS011;67803;41.330;69.282;2023-05-07T11:03:28;32.13;;;16.65;;
78346;SDS011;67803;41.330;69.282;2023-05-07T11:06:11;11.38;;;3.55;;
78346;SDS011;67803;41.330;69.282;2023-05-07T11:08:55;12.90;;;4.38;;
78346;SDS011;67803;41.330;69.282;2023-05-07T11:11:44;12.10;;;3.80;;
78346;SDS011;67803;41.330;69.282;2023-05-07T11:14:34;8.70;;;3.40;;
78346;SDS011;67803;41.330;69.282;2023-05-07T11:17:05;10.27;;;3.42;;
78346;SDS011;67803;41.330;69.282;2023-05-07T11:19:52;9.07;;;3.85;;
78346;SDS011;67803;41.330;69.282;2023-05-07T11:24:53;8.33;;;2.90;;
78346;SDS011;67803;41.330;69.282;2023-05-07T11:27:24;9.45;;;3.70;;
78346;SDS011;67803;41.330;69.282;2023-05-07T11:29:54;9.02;;;3.30;;
78346;SDS011;67803;41.330;69.282;2023-05-07T11:32:29;12.93;;;3.45;;
78346;SDS011;67803;41.330;69.282;2023-05-07T11:35:00;13.63;;;3.47;;
78346;SDS011;67803;41.330;69.282;2023-05-07T11:37:31;9.52;;;3.55;;
78346;SDS011;67803;41.330;69.282;2023-05-07T11:40:05;7.47;;;3.50;;
78346;SDS011;67803;41.330;69.282;2023-05-07T11:42:37;13.65;;;3.28;;
78346;SDS011;67803;41.330;69.282;2023-05-07T11:45:08;9.85;;;3.47;;
78346;SDS011;67803;41.330;69.282;2023-05-07T11:47:41;11.82;;;3.38;;
78346;SDS011;67803;41.330;69.282;2023-05-07T11:50:11;9.52;;;3.33;;
78346;SDS011;67803;41.330;69.282;2023-05-07T11:52:49;7.55;;;2.83;;
78346;SDS011;67803;41.330;69.282;2023-05-07T11:55:20;7.80;;;2.47;;
78346;SDS011;67803;41.330;69.282;2023-05-07T11:57:51;9.45;;;2.60;;
78346;SDS011;67803;41.330;69.282;2023-05-07T12:00:22;6.53;;;2.58;;
78346;SDS011;67803;41.330;69.282;2023-05-07T12:02:52;8.75;;;2.95;;
78346;SDS011;67803;41.330;69.282;2023-05-07T12:05:23;7.63;;;3.03;;
78346;SDS011;67803;41.330;69.282;2023-05-07T12:07:55;6.90;;;2.83;;
78346;SDS011;67803;41.330;69.282;2023-05-07T12:10:26;13.02;;;2.95;;
78346;SDS011;67803;41.330;69.282;2023-05-07T12:12:56;10.55;;;3.08;;
78346;SDS011;67803;41.330;69.282;2023-05-07T12:15:27;10.02;;;3.80;;
78346;SDS011;67803;41.330;69.282;2023-05-07T12:17:58;7.18;;;3.03;;
78346;SDS011;67803;41.330;69.282;2023-05-07T12:20:28;7.53;;;2.80;;
78346;SDS011;67803;41.330;69.282;2023-05-07T12:22:59;7.40;;;2.80;;
78346;SDS011;67803;41.330;69.282;2023-05-07T12:25:30;3.97;;;2.60;;
78346;SDS011;67803;41.330;69.282;2023-05-07T12:28:02;5.75;;;2.90;;
78346;SDS011;67803;41.330;69.282;2023-05-07T12:30:37;9.80;;;3.40;;
78346;SDS011;67803;41.330;69.282;2023-05-07T12:33:07;9.98;;;3.20;;
78346;SDS011;67803;41.330;69.282;2023-05-07T12:35:41;9.75;;;3.17;;
78346;SDS011;67803;41.330;69.282;2023-05-07T12:38:13;10.40;;;3.00;;
78346;SDS011;67803;41.330;69.282;2023-05-07T12:40:45;10.23;;;2.95;;
78346;SDS011;67803;41.330;69.282;2023-05-07T12:43:19;13.80;;;3.00;;
78346;SDS011;67803;41.330;69.282;2023-05-07T12:45:50;10.10;;;3.20;;
78346;SDS011;67803;41.330;69.282;2023-05-07T12:48:21;8.25;;;3.10;;
78346;SDS011;67803;41.330;69.282;2023-05-07T12:50:55;8.40;;;3.67;;
78346;SDS011;67803;41.330;69.282;2023-05-07T12:53:26;11.15;;;3.20;;
78346;SDS011;67803;41.330;69.282;2023-05-07T12:55:57;12.25;;;3.50;;
78346;SDS011;67803;41.330;69.282;2023-05-07T12:58:30;5.25;;;2.63;;
78346;SDS011;67803;41.330;69.282;2023-05-07T13:01:03;12.43;;;3.13;;
78346;SDS011;67803;41.330;69.282;2023-05-07T13:03:34;11.63;;;2.78;;
78346;SDS011;67803;41.330;69.282;2023-05-07T13:06:08;7.75;;;2.47;;
78346;SDS011;67803;41.330;69.282;2023-05-07T13:11:13;8.02;;;2.53;;
78346;SDS011;67803;41.330;69.282;2023-05-07T13:13:44;6.90;;;2.50;;
78346;SDS011;67803;41.330;69.282;2023-05-07T13:16:14;11.50;;;3.33;;
78346;SDS011;67803;41.330;69.282;2023-05-07T13:18:45;6.45;;;2.78;;
78346;SDS011;67803;41.330;69.282;2023-05-07T13:21:15;8.82;;;3.55;;
78346;SDS011;67803;41.330;69.282;2023-05-07T13:23:46;10.20;;;3.28;;
78346;SDS011;67803;41.330;69.282;2023-05-07T13:26:16;11.77;;;2.97;;
78346;SDS011;67803;41.330;69.282;2023-05-07T13:28:47;12.27;;;3.38;;
78346;SDS011;67803;41.330;69.282;2023-05-07T13:31:18;8.88;;;2.72;;
78346;SDS011;67803;41.330;69.282;2023-05-07T13:33:50;11.30;;;3.35;;
78346;SDS011;67803;41.330;69.282;2023-05-07T13:36:22;10.13;;;3.15;;
78346;SDS011;67803;41.330;69.282;2023-05-07T13:38:53;13.35;;;3.00;;
78346;SDS011;67803;41.330;69.282;2023-05-07T13:41:23;9.32;;;2.97;;
78346;SDS011;67803;41.330;69.282;2023-05-07T13:43:53;7.68;;;2.42;;
78346;SDS011;67803;41.330;69.282;2023-05-07T13:46:24;10.70;;;3.22;;
78346;SDS011;67803;41.330;69.282;2023-05-07T13:48:55;10.05;;;2.67;;
78346;SDS011;67803;41.330;69.282;2023-05-07T13:51:25;11.65;;;3.28;;
78346;SDS011;67803;41.330;69.282;2023-05-07T13:53:56;9.95;;;3.00;;
78346;SDS011;67803;41.330;69.282;2023-05-07T13:56:26;8.75;;;3.05;;
78346;SDS011;67803;41.330;69.282;2023-05-07T13:58:58;8.68;;;3.53;;
78346;SDS011;67803;41.330;69.282;2023-05-07T14:01:28;9.05;;;3.33;;
78346;SDS011;67803;41.330;69.282;2023-05-07T14:03:59;10.40;;;3.50;;
78346;SDS011;67803;41.330;69.282;2023-05-07T14:06:29;11.75;;;3.72;;
78346;SDS011;67803;41.330;69.282;2023-05-07T14:09:00;8.68;;;3.33;;
78346;SDS011;67803;41.330;69.282;2023-05-07T14:11:30;12.98;;;3.90;;
78346;SDS011;67803;41.330;69.282;2023-05-07T14:14:01;12.02;;;3.25;;
78346;SDS011;67803;41.330;69.282;2023-05-07T14:16:31;10.60;;;3.85;;
78346;SDS011;67803;41.330;69.282;2023-05-07T14:19:02;9.70;;;3.60;;
78346;SDS011;67803;41.330;69.282;2023-05-07T14:21:32;8.23;;;3.83;;
78346;SDS011;67803;41.330;69.282;2023-05-07T14:24:03;13.77;;;4.93;;
78346;SDS011;67803;41.330;69.282;2023-05-07T14:26:34;10.20;;;4.10;;
78346;SDS011;67803;41.330;69.282;2023-05-07T14:29:04;11.82;;;4.72;;
78346;SDS011;67803;41.330;69.282;2023-05-07T14:31:35;11.13;;;4.70;;
78346;SDS011;67803;41.330;69.282;2023-05-07T14:34:05;13.43;;;4.47;;
78346;SDS011;67803;41.330;69.282;2023-05-07T14:36:36;10.68;;;3.72;;
78346;SDS011;67803;41.330;69.282;2023-05-07T14:39:08;13.45;;;4.22;;
78346;SDS011;67803;41.330;69.282;2023-05-07T14:41:39;8.23;;;3.30;;
78346;SDS011;67803;41.330;69.282;2023-05-07T14:44:09;8.80;;;4.10;;
78346;SDS011;67803;41.330;69.282;2023-05-07T14:46:40;10.18;;;3.72;;
78346;SDS011;67803;41.330;69.282;2023-05-07T14:49:10;7.72;;;4.57;;
78346;SDS011;67803;41.330;69.282;2023-05-07T14:51:47;9.73;;;4.15;;
78346;SDS011;67803;41.330;69.282;2023-05-07T14:54:18;12.90;;;4.47;;